sensor_id;sensor_type;location;lat;lon;timestamp;pressure;altitude;pressure_sealevel;temperature;humidity
21504;BME280;10913;51.992;9.228;2023-02-12T00:02:14;102345.50;;;8.30;100.00
21504;BME280;10913;51.992;9.228;2023-02-12T00:04:39;102342.97;;;8.32;100.00
21504;BME280;10913;51.992;9.228;2023-02-12T00:07:04;102346.50;;;8.33;100.00
21504;BME280;10913;51.992;9.228;2023-02-12T00:09:30;102353.50;;;8.32;100.00
21504;BME280;10913;51.992;9.228;2023-02-12T00:11:55;102348.09;;;8.29;100.00
21504;BME280;10913;51.992;9.228;2023-02-12T00:14:21;102348.13;;;8.30;100.00
21504;BME280;10913;51.992;9.228;2023-02-12T00:16:46;102345.50;;;8.30;100.00
21504;BME280;10913;51.992;9.228;2023-02-12T00:19:11;102353.50;;;8.32;100.00
21504;BME280;10913;51.992;9.228;2023-02-12T00:21:37;102351.66;;;8.31;100.00
21504;BME280;10913;51.992;9.228;2023-02-12T00:24:02;102344.75;;;8.33;100.00
21504;BME280;10913;51.992;9.228;2023-02-12T00:26:28;102347.38;;;8.33;100.00
21504;BME280;10913;51.992;9.228;2023-02-12T00:28:53;102344.75;;;8.33;100.00
21504;BME280;10913;51.992;9.228;2023-02-12T00:31:22;102346.41;;;8.31;100.00
21504;BME280;10913;51.992;9.228;2023-02-12T00:33:48;102352.56;;;8.32;100.00
21504;BME280;10913;51.992;9.228;2023-02-12T00:36:16;102354.25;;;8.29;100.00
21504;BME280;10913;51.992;9.228;2023-02-12T00:38:42;102350.72;;;8.29;100.00
21504;BME280;10913;51.992;9.228;2023-02-12T00:41:08;102351.59;;;8.29;100.00
21504;BME280;10913;51.992;9.228;2023-02-12T00:43:33;102343.66;;;8.28;100.00
21504;BME280;10913;51.992;9.228;2023-02-12T00:45:59;102345.38;;;8.27;100.00
21504;BME280;10913;51.992;9.228;2023-02-12T00:48:24;102352.34;;;8.25;100.00
21504;BME280;10913;51.992;9.228;2023-02-12T00:50:50;102361.03;;;8.23;100.00
21504;BME280;10913;51.992;9.228;2023-02-12T00:53:16;102365.44;;;8.24;100.00
21504;BME280;10913;51.992;9.228;2023-02-12T00:55:41;102360.19;;;8.24;100.00
21504;BME280;10913;51.992;9.228;2023-02-12T00:58:07;102363.75;;;8.26;100.00
21504;BME280;10913;51.992;9.228;2023-02-12T01:00:33;102360.19;;;8.24;100.00
21504;BME280;10913;51.992;9.228;2023-02-12T01:02:59;102361.84;;;8.22;100.00
21504;BME280;10913;51.992;9.228;2023-02-12T01:05:24;102362.75;;;8.22;100.00
21504;BME280;10913;51.992;9.228;2023-02-12T01:07:51;102361.97;;;8.25;100.00
21504;BME280;10913;51.992;9.228;2023-02-12T01:10:17;102373.28;;;8.22;100.00
21504;BME280;10913;51.992;9.228;2023-02-12T01:12:43;102371.50;;;8.21;100.00
21504;BME280;10913;51.992;9.228;2023-02-12T01:15:08;102370.72;;;8.24;100.00
21504;BME280;10913;51.992;9.228;2023-02-12T01:17:37;102376.09;;;8.27;100.00
21504;BME280;10913;51.992;9.228;2023-02-12T01:20:04;102372.50;;;8.25;100.00
21504;BME280;10913;51.992;9.228;2023-02-12T01:22:33;102369.81;;;8.23;100.00
21504;BME280;10913;51.992;9.228;2023-02-12T01:24:58;102375.13;;;8.25;100.00
21504;BME280;10913;51.992;9.228;2023-02-12T01:27:24;102381.25;;;8.24;100.00
21504;BME280;10913;51.992;9.228;2023-02-12T01:29:49;102378.63;;;8.24;100.00
21504;BME280;10913;51.992;9.228;2023-02-12T01:32:15;102381.25;;;8.24;100.00
21504;BME280;10913;51.992;9.228;2023-02-12T01:34:40;102382.16;;;8.24;100.00
21504;BME280;10913;51.992;9.228;2023-02-12T01:37:05;102374.97;;;8.20;100.00
21504;BME280;10913;51.992;9.228;2023-02-12T01:39:31;102379.34;;;8.20;100.00
21504;BME280;10913;51.992;9.228;2023-02-12T01:41:56;102379.44;;;8.23;100.00
21504;BME280;10913;51.992;9.228;2023-02-12T01:44:24;102378.50;;;8.21;100.00
21504;BME280;10913;51.992;9.228;2023-02-12T01:46:57;102379.41;;;8.21;100.00
21504;BME280;10913;51.992;9.228;2023-02-12T01:49:26;102383.75;;;8.21;100.00
21504;BME280;10913;51.992;9.228;2023-02-12T01:51:59;102372.19;;;8.16;100.00
21504;BME280;10913;51.992;9.228;2023-02-12T01:54:26;102376.63;;;8.17;100.00
21504;BME280;10913;51.992;9.228;2023-02-12T01:56:53;102379.13;;;8.14;100.00
21504;BME280;10913;51.992;9.228;2023-02-12T01:59:20;102371.34;;;8.17;100.00
21504;BME280;10913;51.992;9.228;2023-02-12T02:01:46;102379.25;;;8.17;100.00
21504;BME280;10913;51.992;9.228;2023-02-12T02:04:14;102381.03;;;8.18;100.00
21504;BME280;10913;51.992;9.228;2023-02-12T02:06:46;102374.94;;;8.19;100.00
21504;BME280;10913;51.992;9.228;2023-02-12T02:09:13;102374.06;;;8.20;100.00
21504;BME280;10913;51.992;9.228;2023-02-12T02:11:38;102375.78;;;8.18;100.00
21504;BME280;10913;51.992;9.228;2023-02-12T02:14:22;102379.34;;;8.20;100.00
21504;BME280;10913;51.992;9.228;2023-02-12T02:22:52;102375.88;;;8.21;100.00
21504;BME280;10913;51.992;9.228;2023-02-12T02:30:54;102370.28;;;8.12;100.00
21504;BME280;10913;51.992;9.228;2023-02-12T02:36:49;102365.13;;;8.15;100.00
21504;BME280;10913;51.992;9.228;2023-02-12T02:39:20;102358.19;;;8.17;100.00
21504;BME280;10913;51.992;9.228;2023-02-12T02:42:09;102358.19;;;8.17;100.00
21504;BME280;10913;51.992;9.228;2023-02-12T02:44:47;102357.34;;;8.18;100.00
21504;BME280;10913;51.992;9.228;2023-02-12T02:47:16;102361.72;;;8.17;100.00
21504;BME280;10913;51.992;9.228;2023-02-12T02:49:53;102359.97;;;8.18;100.00
21504;BME280;10913;51.992;9.228;2023-02-12T02:52:36;102367.00;;;8.17;100.00
21504;BME280;10913;51.992;9.228;2023-02-12T02:55:06;102369.63;;;8.17;100.00
21504;BME280;10913;51.992;9.228;2023-02-12T03:00:12;102363.47;;;8.17;100.00
21504;BME280;10913;51.992;9.228;2023-02-12T03:02:41;102360.75;;;8.15;100.00
21504;BME280;10913;51.992;9.228;2023-02-12T03:05:14;102362.50;;;8.15;100.00
21504;BME280;10913;51.992;9.228;2023-02-12T03:08:53;102358.13;;;8.15;100.00
21504;BME280;10913;51.992;9.228;2023-02-12T03:11:13;102359.88;;;8.15;100.00
21504;BME280;10913;51.992;9.228;2023-02-12T03:16:22;102364.19;;;8.13;100.00
21504;BME280;10913;51.992;9.228;2023-02-12T03:19:12;102364.19;;;8.13;100.00
21504;BME280;10913;51.992;9.228;2023-02-12T03:22:09;102369.38;;;8.11;100.00
21504;BME280;10913;51.992;9.228;2023-02-12T03:24:43;102359.75;;;8.12;100.00
21504;BME280;10913;51.992;9.228;2023-02-12T03:27:43;102367.59;;;8.10;100.00
21504;BME280;10913;51.992;9.228;2023-02-12T03:30:10;102371.19;;;8.12;100.00
21504;BME280;10913;51.992;9.228;2023-02-12T03:32:59;102361.38;;;8.08;100.00
21504;BME280;10913;51.992;9.228;2023-02-12T03:35:49;102367.47;;;8.07;100.00
21504;BME280;10913;51.992;9.228;2023-02-12T03:38:40;102363.09;;;8.08;100.00
21504;BME280;10913;51.992;9.228;2023-02-12T03:41:11;102369.22;;;8.07;100.00
21504;BME280;10913;51.992;9.228;2023-02-12T03:43:47;102363.94;;;8.07;100.00
21504;BME280;10913;51.992;9.228;2023-02-12T03:53:49;102362.94;;;8.03;100.00
21504;BME280;10913;51.992;9.228;2023-02-12T03:59:20;102380.56;;;8.06;100.00
21504;BME280;10913;51.992;9.228;2023-02-12T04:01:46;102379.69;;;8.05;100.00
21504;BME280;10913;51.992;9.228;2023-02-12T04:04:13;102388.47;;;8.06;100.00
21504;BME280;10913;51.992;9.228;2023-02-12T04:06:39;102381.47;;;8.06;100.00
21504;BME280;10913;51.992;9.228;2023-02-12T04:09:08;102387.63;;;8.07;100.00
21504;BME280;10913;51.992;9.228;2023-02-12T04:11:57;102393.69;;;8.04;100.00
21504;BME280;10913;51.992;9.228;2023-02-12T04:17:17;102389.31;;;8.05;100.00
21504;BME280;10913;51.992;9.228;2023-02-12T04:30:41;102401.50;;;8.03;100.00
21504;BME280;10913;51.992;9.228;2023-02-12T04:33:10;102402.41;;;8.03;100.00
21504;BME280;10913;51.992;9.228;2023-02-12T04:35:49;102413.84;;;8.04;100.00
21504;BME280;10913;51.992;9.228;2023-02-12T04:38:25;102408.53;;;8.02;100.00
21504;BME280;10913;51.992;9.228;2023-02-12T04:40:52;102414.69;;;8.03;100.00
21504;BME280;10913;51.992;9.228;2023-02-12T04:43:32;102419.94;;;8.03;100.00
21504;BME280;10913;51.992;9.228;2023-02-12T04:46:05;102422.44;;;8.00;100.00
21504;BME280;10913;51.992;9.228;2023-02-12T04:48:31;102416.34;;;8.01;100.00
21504;BME280;10913;51.992;9.228;2023-02-12T04:50:59;102413.72;;;8.01;100.00
21504;BME280;10913;51.992;9.228;2023-02-12T04:53:25;102418.16;;;8.02;100.00
21504;BME280;10913;51.992;9.228;2023-02-12T04:55:50;102419.09;;;8.04;100.00
21504;BME280;10913;51.992;9.228;2023-02-12T04:58:17;102420.78;;;8.02;100.00
21504;BME280;10913;51.992;9.228;2023-02-12T05:00:42;102425.22;;;8.03;100.00
21504;BME280;10913;51.992;9.228;2023-02-12T05:03:07;102422.63;;;8.04;100.00
21504;BME280;10913;51.992;9.228;2023-02-12T05:05:33;102429.63;;;8.04;100.00
21504;BME280;10913;51.992;9.228;2023-02-12T05:07:59;102427.00;;;8.04;100.00
21504;BME280;10913;51.992;9.228;2023-02-12T05:10:24;102422.56;;;8.03;100.00
21504;BME280;10913;51.992;9.228;2023-02-12T05:12:51;102420.78;;;8.02;100.00
21504;BME280;10913;51.992;9.228;2023-02-12T05:15:17;102419.94;;;8.03;100.00
21504;BME280;10913;51.992;9.228;2023-02-12T05:17:42;102429.63;;;8.04;100.00
21504;BME280;10913;51.992;9.228;2023-02-12T05:20:10;102420.91;;;8.05;100.00
21504;BME280;10913;51.992;9.228;2023-02-12T05:22:35;102422.63;;;8.04;100.00
21504;BME280;10913;51.992;9.228;2023-02-12T05:25:01;102420.00;;;8.04;100.00
21504;BME280;10913;51.992;9.228;2023-02-12T05:27:26;102427.00;;;8.04;100.00
21504;BME280;10913;51.992;9.228;2023-02-12T05:29:52;102421.75;;;8.04;100.00
21504;BME280;10913;51.992;9.228;2023-02-12T05:32:17;102421.75;;;8.04;100.00
21504;BME280;10913;51.992;9.228;2023-02-12T05:34:43;102427.84;;;8.03;100.00
21504;BME280;10913;51.992;9.228;2023-02-12T05:37:08;102424.38;;;8.04;100.00
21504;BME280;10913;51.992;9.228;2023-02-12T05:39:33;102426.03;;;8.02;100.00
21504;BME280;10913;51.992;9.228;2023-02-12T05:41:59;102426.03;;;8.02;100.00
21504;BME280;10913;51.992;9.228;2023-02-12T05:44:24;102430.41;;;8.01;100.00
21504;BME280;10913;51.992;9.228;2023-02-12T05:46:49;102426.94;;;8.02;100.00
21504;BME280;10913;51.992;9.228;2023-02-12T05:49:15;102426.03;;;8.02;100.00
21504;BME280;10913;51.992;9.228;2023-02-12T05:51:40;102419.00;;;8.01;100.00
21504;BME280;10913;51.992;9.228;2023-02-12T05:54:06;102431.31;;;8.02;100.00
21504;BME280;10913;51.992;9.228;2023-02-12T05:56:34;102429.50;;;8.01;100.00
21504;BME280;10913;51.992;9.228;2023-02-12T05:59:05;102427.78;;;8.01;100.00
21504;BME280;10913;51.992;9.228;2023-02-12T06:01:36;102430.41;;;8.01;100.00
21504;BME280;10913;51.992;9.228;2023-02-12T06:04:05;102431.31;;;8.02;100.00
21504;BME280;10913;51.992;9.228;2023-02-12T06:06:31;102435.63;;;8.00;100.00
21504;BME280;10913;51.992;9.228;2023-02-12T06:08:58;102432.97;;;8.00;100.00
21504;BME280;10913;51.992;9.228;2023-02-12T06:11:24;102429.44;;;7.98;100.00
21504;BME280;10913;51.992;9.228;2023-02-12T06:13:50;102432.06;;;7.98;100.00
21504;BME280;10913;51.992;9.228;2023-02-12T06:16:23;102436.50;;;7.99;100.00
21504;BME280;10913;51.992;9.228;2023-02-12T06:18:50;102439.13;;;7.99;100.00
21504;BME280;10913;51.992;9.228;2023-02-12T06:21:17;102433.78;;;7.97;100.00
21504;BME280;10913;51.992;9.228;2023-02-12T06:23:42;102439.94;;;7.98;100.00
21504;BME280;10913;51.992;9.228;2023-02-12T06:26:08;102436.50;;;7.99;100.00
21504;BME280;10913;51.992;9.228;2023-02-12T06:28:33;102432.97;;;7.98;100.00
21504;BME280;10913;51.992;9.228;2023-02-12T06:30:59;102435.63;;;8.00;100.00
21504;BME280;10913;51.992;9.228;2023-02-12T06:33:24;102443.50;;;8.00;100.00
21504;BME280;10913;51.992;9.228;2023-02-12T06:35:49;102436.44;;;7.97;100.00
21504;BME280;10913;51.992;9.228;2023-02-12T06:38:15;102440.78;;;7.97;100.00
21504;BME280;10913;51.992;9.228;2023-02-12T06:40:40;102438.16;;;7.97;100.00
21504;BME280;10913;51.992;9.228;2023-02-12T06:43:06;102446.13;;;7.98;100.00
21504;BME280;10913;51.992;9.228;2023-02-12T06:45:33;102444.38;;;7.99;100.00
21504;BME280;10913;51.992;9.228;2023-02-12T06:47:59;102452.28;;;7.99;100.00
21504;BME280;10913;51.992;9.228;2023-02-12T06:50:25;102463.72;;;7.99;100.00
21504;BME280;10913;51.992;9.228;2023-02-12T06:52:50;102452.28;;;7.99;100.00
21504;BME280;10913;51.992;9.228;2023-02-12T06:55:16;102461.91;;;7.98;100.00
21504;BME280;10913;51.992;9.228;2023-02-12T06:57:41;102471.53;;;7.98;100.00
21504;BME280;10913;51.992;9.228;2023-02-12T07:00:07;102471.53;;;7.98;100.00
21504;BME280;10913;51.992;9.228;2023-02-12T07:02:33;102475.06;;;7.98;100.00
21504;BME280;10913;51.992;9.228;2023-02-12T07:04:59;102470.72;;;7.99;100.00
21504;BME280;10913;51.992;9.228;2023-02-12T07:07:24;102476.88;;;7.99;100.00
21504;BME280;10913;51.992;9.228;2023-02-12T07:09:49;102483.00;;;8.00;100.00
21504;BME280;10913;51.992;9.228;2023-02-12T07:12:15;102479.53;;;8.01;100.00
21504;BME280;10913;51.992;9.228;2023-02-12T07:14:40;102493.53;;;8.00;100.00
21504;BME280;10913;51.992;9.228;2023-02-12T07:17:05;102495.28;;;7.99;100.00
21504;BME280;10913;51.992;9.228;2023-02-12T07:19:32;102502.31;;;8.00;100.00
21504;BME280;10913;51.992;9.228;2023-02-12T07:21:58;102507.59;;;8.00;100.00
21504;BME280;10913;51.992;9.228;2023-02-12T07:24:23;102503.22;;;8.01;100.00
21504;BME280;10913;51.992;9.228;2023-02-12T07:26:48;102505.00;;;8.02;100.00
21504;BME280;10913;51.992;9.228;2023-02-12T07:29:14;102505.91;;;8.02;100.00
21504;BME280;10913;51.992;9.228;2023-02-12T07:31:40;102514.72;;;8.03;100.00
21504;BME280;10913;51.992;9.228;2023-02-12T07:34:06;102515.53;;;8.02;100.00
21504;BME280;10913;51.992;9.228;2023-02-12T07:36:32;102512.97;;;8.03;100.00
21504;BME280;10913;51.992;9.228;2023-02-12T07:38:58;102519.13;;;8.04;100.00
21504;BME280;10913;51.992;9.228;2023-02-12T07:41:30;102520.94;;;8.05;100.00
21504;BME280;10913;51.992;9.228;2023-02-12T07:44:01;102527.09;;;8.05;100.00
21504;BME280;10913;51.992;9.228;2023-02-12T07:46:34;102520.94;;;8.05;100.00
21504;BME280;10913;51.992;9.228;2023-02-12T07:49:02;102524.53;;;8.07;100.00
21504;BME280;10913;51.992;9.228;2023-02-12T07:51:30;102535.06;;;8.07;100.00
21504;BME280;10913;51.992;9.228;2023-02-12T07:53:57;102528.97;;;8.08;100.00
21504;BME280;10913;51.992;9.228;2023-02-12T07:56:24;102523.69;;;8.08;100.00
21504;BME280;10913;51.992;9.228;2023-02-12T07:58:53;102528.13;;;8.09;100.00
21504;BME280;10913;51.992;9.228;2023-02-12T08:03:46;102530.88;;;8.12;100.00
21504;BME280;10913;51.992;9.228;2023-02-12T08:06:21;102531.84;;;8.14;100.00
21504;BME280;10913;51.992;9.228;2023-02-12T08:08:49;102527.41;;;8.13;100.00
21504;BME280;10913;51.992;9.228;2023-02-12T08:11:15;102538.91;;;8.15;100.00
21504;BME280;10913;51.992;9.228;2023-02-12T08:13:42;102540.69;;;8.16;100.00
21504;BME280;10913;51.992;9.228;2023-02-12T08:16:13;102541.59;;;8.16;100.00
21504;BME280;10913;51.992;9.228;2023-02-12T08:18:39;102540.69;;;8.16;100.00
21504;BME280;10913;51.992;9.228;2023-02-12T08:23:33;102540.56;;;8.13;100.00
21504;BME280;10913;51.992;9.228;2023-02-12T08:26:18;102547.63;;;8.14;100.00
21504;BME280;10913;51.992;9.228;2023-02-12T08:28:46;102549.44;;;8.15;100.00
21504;BME280;10913;51.992;9.228;2023-02-12T08:31:14;102545.19;;;8.18;100.00
21504;BME280;10913;51.992;9.228;2023-02-12T08:33:40;102546.19;;;8.22;100.00
21504;BME280;10913;51.992;9.228;2023-02-12T08:36:08;102556.84;;;8.25;100.00
21504;BME280;10913;51.992;9.228;2023-02-12T08:38:34;102549.00;;;8.26;100.00
21504;BME280;10913;51.992;9.228;2023-02-12T08:41:08;102556.97;;;8.28;100.00
21504;BME280;10913;51.992;9.228;2023-02-12T08:43:34;102555.28;;;8.30;100.00
21504;BME280;10913;51.992;9.228;2023-02-12T08:46:04;102557.25;;;8.34;100.00
21504;BME280;10913;51.992;9.228;2023-02-12T08:48:30;102552.03;;;8.36;100.00
21504;BME280;10913;51.992;9.228;2023-02-12T08:51:01;102561.81;;;8.38;100.00
21504;BME280;10913;51.992;9.228;2023-02-12T08:53:26;102550.38;;;8.38;100.00
21504;BME280;10913;51.992;9.228;2023-02-12T08:55:52;102551.34;;;8.41;100.00
21504;BME280;10913;51.992;9.228;2023-02-12T08:58:17;102554.09;;;8.44;100.00
21504;BME280;10913;51.992;9.228;2023-02-12T09:00:42;102554.09;;;8.44;100.00
21504;BME280;10913;51.992;9.228;2023-02-12T09:03:08;102548.97;;;8.47;100.00
21504;BME280;10913;51.992;9.228;2023-02-12T09:05:37;102555.25;;;8.51;100.00
21504;BME280;10913;51.992;9.228;2023-02-12T09:08:03;102549.22;;;8.53;100.00
21504;BME280;10913;51.992;9.228;2023-02-12T09:10:28;102553.81;;;8.59;100.00
21504;BME280;10913;51.992;9.228;2023-02-12T09:12:53;102559.19;;;8.62;100.00
21504;BME280;10913;51.992;9.228;2023-02-12T09:15:19;102557.44;;;8.62;100.00
21504;BME280;10913;51.992;9.228;2023-02-12T09:17:44;102561.03;;;8.64;100.00
21504;BME280;10913;51.992;9.228;2023-02-12T09:20:10;102562.88;;;8.67;100.00
21504;BME280;10913;51.992;9.228;2023-02-12T09:22:35;102562.09;;;8.70;100.00
21504;BME280;10913;51.992;9.228;2023-02-12T09:25:03;102563.13;;;8.73;100.00
21504;BME280;10913;51.992;9.228;2023-02-12T09:27:28;102569.41;;;8.77;100.00
21504;BME280;10913;51.992;9.228;2023-02-12T09:29:54;102564.22;;;8.80;100.00
21504;BME280;10913;51.992;9.228;2023-02-12T09:32:19;102569.63;;;8.83;100.00
21504;BME280;10913;51.992;9.228;2023-02-12T09:34:44;102564.34;;;8.83;100.00
21504;BME280;10913;51.992;9.228;2023-02-12T09:37:10;102568.00;;;8.86;100.00
21504;BME280;10913;51.992;9.228;2023-02-12T09:39:35;102573.34;;;8.88;100.00
21504;BME280;10913;51.992;9.228;2023-02-12T09:44:37;102570.97;;;8.95;100.00
21504;BME280;10913;51.992;9.228;2023-02-12T09:47:34;102574.66;;;9.01;100.00
21504;BME280;10913;51.992;9.228;2023-02-12T09:52:45;102573.09;;;9.06;100.00
21504;BME280;10913;51.992;9.228;2023-02-12T09:55:14;102567.03;;;9.08;100.00
21504;BME280;10913;51.992;9.228;2023-02-12T09:57:40;102577.69;;;9.11;100.00
21504;BME280;10913;51.992;9.228;2023-02-12T10:02:40;102576.03;;;9.13;100.00
21504;BME280;10913;51.992;9.228;2023-02-12T10:05:15;102574.34;;;9.15;100.00
21504;BME280;10913;51.992;9.228;2023-02-12T10:15:18;102574.66;;;9.24;100.00
21504;BME280;10913;51.992;9.228;2023-02-12T10:17:51;102574.66;;;9.24;100.00
21504;BME280;10913;51.992;9.228;2023-02-12T10:20:51;102568.28;;;9.18;100.00
21504;BME280;10913;51.992;9.228;2023-02-12T10:23:39;102577.94;;;9.17;100.00
21504;BME280;10913;51.992;9.228;2023-02-12T10:26:21;102573.50;;;9.16;100.00
21504;BME280;10913;51.992;9.228;2023-02-12T10:28:50;102573.56;;;9.18;100.00
21504;BME280;10913;51.992;9.228;2023-02-12T10:31:31;102576.22;;;9.19;100.00
21504;BME280;10913;51.992;9.228;2023-02-12T10:33:58;102573.63;;;9.21;100.00
21504;BME280;10913;51.992;9.228;2023-02-12T10:36:44;102580.50;;;9.16;100.00
21504;BME280;10913;51.992;9.228;2023-02-12T10:39:24;102579.63;;;9.15;100.00
21504;BME280;10913;51.992;9.228;2023-02-12T10:42:02;102588.47;;;9.17;100.00
21504;BME280;10913;51.992;9.228;2023-02-12T10:44:30;102588.47;;;9.17;100.00
21504;BME280;10913;51.992;9.228;2023-02-12T10:46:55;102580.66;;;9.20;100.00
21504;BME280;10913;51.992;9.228;2023-02-12T10:49:21;102578.13;;;9.23;100.00
21504;BME280;10913;51.992;9.228;2023-02-12T10:54:44;102579.91;;;9.24;100.00
21504;BME280;10913;51.992;9.228;2023-02-12T10:59:43;102579.13;;;9.27;100.00
21504;BME280;10913;51.992;9.228;2023-02-12T11:04:53;102580.03;;;9.27;100.00
21504;BME280;10913;51.992;9.228;2023-02-12T11:07:20;102574.75;;;9.27;100.00
21504;BME280;10913;51.992;9.228;2023-02-12T11:09:48;102580.03;;;9.27;100.00
21504;BME280;10913;51.992;9.228;2023-02-12T11:12:34;102576.56;;;9.28;100.00
21504;BME280;10913;51.992;9.228;2023-02-12T11:15:28;102576.56;;;9.28;100.00
21504;BME280;10913;51.992;9.228;2023-02-12T11:18:03;102573.06;;;9.29;100.00
21504;BME280;10913;51.992;9.228;2023-02-12T11:23:03;102574.75;;;9.27;100.00
21504;BME280;10913;51.992;9.228;2023-02-12T11:25:34;102572.97;;;9.26;100.00
21504;BME280;10913;51.992;9.228;2023-02-12T11:30:28;102570.16;;;9.22;100.00
21504;BME280;10913;51.992;9.228;2023-02-12T11:33:08;102568.47;;;9.24;100.00
21504;BME280;10913;51.992;9.228;2023-02-12T11:35:55;102574.66;;;9.24;100.00
21504;BME280;10913;51.992;9.228;2023-02-12T11:38:24;102572.06;;;9.26;100.00
21504;BME280;10913;51.992;9.228;2023-02-12T11:40:53;102568.47;;;9.24;100.00
21504;BME280;10913;51.992;9.228;2023-02-12T11:43:19;102565.88;;;9.25;100.00
21504;BME280;10913;51.992;9.228;2023-02-12T11:45:48;102563.38;;;9.28;100.00
21504;BME280;10913;51.992;9.228;2023-02-12T11:48:20;102566.13;;;9.31;100.00
21504;BME280;10913;51.992;9.228;2023-02-12T11:50:48;102558.19;;;9.31;100.00
21504;BME280;10913;51.992;9.228;2023-02-12T11:53:34;102559.03;;;9.30;100.00
21504;BME280;10913;51.992;9.228;2023-02-12T11:56:07;102562.28;;;9.23;100.00
21504;BME280;10913;51.992;9.228;2023-02-12T11:58:33;102562.09;;;9.17;100.00
21504;BME280;10913;51.992;9.228;2023-02-12T12:01:11;102557.75;;;9.19;100.00
21504;BME280;10913;51.992;9.228;2023-02-12T12:06:51;102564.22;;;9.27;100.00
21504;BME280;10913;51.992;9.228;2023-02-12T12:12:12;102557.72;;;9.43;100.00
21504;BME280;10913;51.992;9.228;2023-02-12T12:14:47;102558.03;;;9.52;100.00
21504;BME280;10913;51.992;9.228;2023-02-12T12:20:59;102554.16;;;9.68;100.00
21504;BME280;10913;51.992;9.228;2023-02-12T12:23:46;102554.31;;;9.73;100.00
21504;BME280;10913;51.992;9.228;2023-02-12T12:26:20;102542.06;;;9.75;100.00
21504;BME280;10913;51.992;9.228;2023-02-12T12:29:06;102551.03;;;9.80;100.00
21504;BME280;10913;51.992;9.228;2023-02-12T12:31:49;102545.16;;;9.88;100.00
21504;BME280;10913;51.992;9.228;2023-02-12T12:34:21;102542.88;;;10.00;100.00
21504;BME280;10913;51.992;9.228;2023-02-12T12:39:40;102534.81;;;10.23;100.00
21504;BME280;10913;51.992;9.228;2023-02-12T12:56:14;102518.19;;;10.87;100.00
21504;BME280;10913;51.992;9.228;2023-02-12T13:04:41;102514.53;;;10.82;100.00
21504;BME280;10913;51.992;9.228;2023-02-12T13:10:16;102512.41;;;10.68;100.00
21504;BME280;10913;51.992;9.228;2023-02-12T13:13:45;102509.66;;;10.65;100.00
21504;BME280;10913;51.992;9.228;2023-02-12T13:18:13;102513.13;;;10.63;100.00
21504;BME280;10913;51.992;9.228;2023-02-12T13:20:54;102512.06;;;10.56;100.00
21504;BME280;10913;51.992;9.228;2023-02-12T13:26:13;102503.84;;;10.47;100.00
21504;BME280;10913;51.992;9.228;2023-02-12T13:28:45;102494.03;;;10.43;100.00
21504;BME280;10913;51.992;9.228;2023-02-12T13:31:21;102495.63;;;10.37;100.00
21504;BME280;10913;51.992;9.228;2023-02-12T13:33:51;102502.59;;;10.34;100.00
21504;BME280;10913;51.992;9.228;2023-02-12T13:36:17;102507.75;;;10.30;100.00
21504;BME280;10913;51.992;9.228;2023-02-12T13:38:50;102513.94;;;10.30;100.00
21504;BME280;10913;51.992;9.228;2023-02-12T13:41:19;102504.97;;;10.25;100.00
21504;BME280;10913;51.992;9.228;2023-02-12T13:46:32;102502.06;;;10.18;100.00
21504;BME280;10913;51.992;9.228;2023-02-12T13:49:04;102501.94;;;10.13;100.00
21504;BME280;10913;51.992;9.228;2023-02-12T13:51:41;102507.22;;;10.13;100.00
21504;BME280;10913;51.992;9.228;2023-02-12T13:56:59;102505.41;;;10.12;100.00
21504;BME280;10913;51.992;9.228;2023-02-12T14:04:45;102499.19;;;10.10;100.00
21504;BME280;10913;51.992;9.228;2023-02-12T14:07:13;102495.66;;;10.10;100.00
21504;BME280;10913;51.992;9.228;2023-02-12T14:14:50;102508.50;;;9.97;100.00
21504;BME280;10913;51.992;9.228;2023-02-12T14:20:07;102504.00;;;9.95;100.00
21504;BME280;10913;51.992;9.228;2023-02-12T14:27:44;102505.44;;;9.85;100.00
21504;BME280;10913;51.992;9.228;2023-02-12T14:35:38;102502.69;;;9.82;100.00
21504;BME280;10913;51.992;9.228;2023-02-12T14:43:03;102510.53;;;9.79;100.00
21504;BME280;10913;51.992;9.228;2023-02-12T14:45:38;102508.75;;;9.78;100.00
21504;BME280;10913;51.992;9.228;2023-02-12T14:48:04;102505.13;;;9.75;100.00
21504;BME280;10913;51.992;9.228;2023-02-12T14:50:44;102518.25;;;9.73;100.00
21504;BME280;10913;51.992;9.228;2023-02-12T14:53:21;102511.94;;;9.68;100.00
21504;BME280;10913;51.992;9.228;2023-02-12T14:55:52;102513.53;;;9.63;100.00
21504;BME280;10913;51.992;9.228;2023-02-12T14:58:19;102518.75;;;9.61;100.00
21504;BME280;10913;51.992;9.228;2023-02-12T15:00:49;102517.78;;;9.58;100.00
21504;BME280;10913;51.992;9.228;2023-02-12T15:03:19;102516.88;;;9.57;100.00
21504;BME280;10913;51.992;9.228;2023-02-12T15:08:23;102514.06;;;9.53;100.00
21504;BME280;10913;51.992;9.228;2023-02-12T15:10:58;102514.97;;;9.53;100.00
21504;BME280;10913;51.992;9.228;2023-02-12T15:13:33;102512.28;;;9.52;100.00
21504;BME280;10913;51.992;9.228;2023-02-12T15:21:19;102515.66;;;9.48;100.00
21504;BME280;10913;51.992;9.228;2023-02-12T15:23:48;102508.44;;;9.42;100.00
21504;BME280;10913;51.992;9.228;2023-02-12T15:26:22;102500.38;;;9.38;100.00
21504;BME280;10913;51.992;9.228;2023-02-12T15:28:51;102503.03;;;9.38;100.00
21504;BME280;10913;51.992;9.228;2023-02-12T15:31:19;102503.88;;;9.37;100.00
21504;BME280;10913;51.992;9.228;2023-02-12T15:33:48;102510.81;;;9.35;100.00
21504;BME280;10913;51.992;9.228;2023-02-12T15:36:18;102509.97;;;9.36;100.00
21504;BME280;10913;51.992;9.228;2023-02-12T15:38:48;102508.19;;;9.35;100.00
21504;BME280;10913;51.992;9.228;2023-02-12T15:43:51;102507.28;;;9.34;100.00
21504;BME280;10913;51.992;9.228;2023-02-12T15:46:17;102510.81;;;9.35;100.00
21504;BME280;10913;51.992;9.228;2023-02-12T15:48:43;102507.28;;;9.34;100.00